sensor_id;sensor_type;location;lat;lon;timestamp;P1;durP1;ratioP1;P2;durP2;ratioP2
78718;SDS011;68046;53.334;9.538;2023-07-31T00:02:08;5.47;;;2.13;;
78718;SDS011;68046;53.334;9.538;2023-07-31T00:04:38;6.97;;;2.05;;
78718;SDS011;68046;53.334;9.538;2023-07-31T00:07:10;7.13;;;2.30;;
78718;SDS011;68046;53.334;9.538;2023-07-31T00:09:40;11.02;;;2.65;;
78718;SDS011;68046;53.334;9.538;2023-07-31T00:12:10;5.05;;;2.08;;
78718;SDS011;68046;53.334;9.538;2023-07-31T00:14:40;6.07;;;2.35;;
78718;SDS011;68046;53.334;9.538;2023-07-31T00:17:09;8.90;;;2.22;;
78718;SDS011;68046;53.334;9.538;2023-07-31T00:19:39;7.50;;;2.38;;
78718;SDS011;68046;53.334;9.538;2023-07-31T00:22:12;7.78;;;2.40;;
78718;SDS011;68046;53.334;9.538;2023-07-31T00:24:43;6.55;;;2.28;;
78718;SDS011;68046;53.334;9.538;2023-07-31T00:27:22;10.02;;;2.42;;
78718;SDS011;68046;53.334;9.538;2023-07-31T00:29:54;5.25;;;2.30;;
78718;SDS011;68046;53.334;9.538;2023-07-31T00:32:24;8.20;;;2.53;;
78718;SDS011;68046;53.334;9.538;2023-07-31T00:34:54;8.02;;;2.22;;
78718;SDS011;68046;53.334;9.538;2023-07-31T00:37:29;7.93;;;2.50;;
78718;SDS011;68046;53.334;9.538;2023-07-31T00:39:59;5.10;;;2.53;;
78718;SDS011;68046;53.334;9.538;2023-07-31T00:42:32;7.05;;;2.72;;
78718;SDS011;68046;53.334;9.538;2023-07-31T00:47:32;8.90;;;3.25;;
78718;SDS011;68046;53.334;9.538;2023-07-31T00:52:36;7.38;;;3.53;;
78718;SDS011;68046;53.334;9.538;2023-07-31T00:55:07;14.95;;;3.03;;
78718;SDS011;68046;53.334;9.538;2023-07-31T00:57:38;10.15;;;3.53;;
78718;SDS011;68046;53.334;9.538;2023-07-31T01:00:11;6.60;;;2.63;;
78718;SDS011;68046;53.334;9.538;2023-07-31T01:02:42;8.52;;;2.85;;
78718;SDS011;68046;53.334;9.538;2023-07-31T01:05:12;13.48;;;3.10;;
78718;SDS011;68046;53.334;9.538;2023-07-31T01:07:49;10.80;;;3.33;;
78718;SDS011;68046;53.334;9.538;2023-07-31T01:10:23;8.13;;;2.97;;
78718;SDS011;68046;53.334;9.538;2023-07-31T01:12:55;6.43;;;2.78;;
78718;SDS011;68046;53.334;9.538;2023-07-31T01:15:27;8.48;;;2.88;;
78718;SDS011;68046;53.334;9.538;2023-07-31T01:17:57;12.70;;;3.10;;
78718;SDS011;68046;53.334;9.538;2023-07-31T01:20:27;6.10;;;2.58;;
78718;SDS011;68046;53.334;9.538;2023-07-31T01:23:08;7.80;;;3.42;;
78718;SDS011;68046;53.334;9.538;2023-07-31T01:26:03;8.20;;;3.50;;
78718;SDS011;68046;53.334;9.538;2023-07-31T01:28:37;10.25;;;3.22;;
78718;SDS011;68046;53.334;9.538;2023-07-31T01:31:14;6.80;;;3.15;;
78718;SDS011;68046;53.334;9.538;2023-07-31T01:33:47;10.85;;;3.22;;
78718;SDS011;68046;53.334;9.538;2023-07-31T01:36:18;6.40;;;3.00;;
78718;SDS011;68046;53.334;9.538;2023-07-31T01:38:48;7.50;;;3.30;;
78718;SDS011;68046;53.334;9.538;2023-07-31T01:41:22;6.15;;;3.13;;
78718;SDS011;68046;53.334;9.538;2023-07-31T01:43:52;9.57;;;3.00;;
78718;SDS011;68046;53.334;9.538;2023-07-31T01:46:22;8.65;;;3.35;;
78718;SDS011;68046;53.334;9.538;2023-07-31T01:48:53;7.63;;;3.75;;
78718;SDS011;68046;53.334;9.538;2023-07-31T01:51:23;11.15;;;3.45;;
78718;SDS011;68046;53.334;9.538;2023-07-31T01:56:26;9.18;;;3.97;;
78718;SDS011;68046;53.334;9.538;2023-07-31T01:58:56;8.80;;;2.80;;
78718;SDS011;68046;53.334;9.538;2023-07-31T02:01:26;7.60;;;3.05;;
78718;SDS011;68046;53.334;9.538;2023-07-31T02:03:58;4.88;;;2.67;;
78718;SDS011;68046;53.334;9.538;2023-07-31T02:08:58;7.13;;;3.00;;
78718;SDS011;68046;53.334;9.538;2023-07-31T02:11:33;8.00;;;3.05;;
78718;SDS011;68046;53.334;9.538;2023-07-31T02:14:04;14.88;;;2.90;;
78718;SDS011;68046;53.334;9.538;2023-07-31T02:16:35;8.98;;;3.40;;
78718;SDS011;68046;53.334;9.538;2023-07-31T02:19:05;6.95;;;3.10;;
78718;SDS011;68046;53.334;9.538;2023-07-31T02:21:35;9.57;;;3.45;;
78718;SDS011;68046;53.334;9.538;2023-07-31T02:26:38;10.45;;;3.22;;
78718;SDS011;68046;53.334;9.538;2023-07-31T02:29:09;8.13;;;3.17;;
78718;SDS011;68046;53.334;9.538;2023-07-31T02:31:39;7.82;;;2.83;;
78718;SDS011;68046;53.334;9.538;2023-07-31T02:34:09;8.05;;;2.90;;
78718;SDS011;68046;53.334;9.538;2023-07-31T02:36:39;6.13;;;2.97;;
78718;SDS011;68046;53.334;9.538;2023-07-31T02:39:09;11.35;;;3.75;;
78718;SDS011;68046;53.334;9.538;2023-07-31T02:41:43;6.47;;;3.38;;
78718;SDS011;68046;53.334;9.538;2023-07-31T02:44:13;9.73;;;3.45;;
78718;SDS011;68046;53.334;9.538;2023-07-31T02:49:14;7.68;;;3.35;;
78718;SDS011;68046;53.334;9.538;2023-07-31T02:51:44;6.95;;;2.92;;
78718;SDS011;68046;53.334;9.538;2023-07-31T02:56:47;7.28;;;2.95;;
78718;SDS011;68046;53.334;9.538;2023-07-31T02:59:20;9.25;;;3.10;;
78718;SDS011;68046;53.334;9.538;2023-07-31T03:01:50;8.45;;;3.10;;
78718;SDS011;68046;53.334;9.538;2023-07-31T03:06:50;9.98;;;3.47;;
78718;SDS011;68046;53.334;9.538;2023-07-31T03:09:20;6.95;;;3.53;;
78718;SDS011;68046;53.334;9.538;2023-07-31T03:14:23;6.78;;;3.72;;
78718;SDS011;68046;53.334;9.538;2023-07-31T03:16:55;7.55;;;3.40;;
78718;SDS011;68046;53.334;9.538;2023-07-31T03:19:25;7.25;;;2.88;;
78718;SDS011;68046;53.334;9.538;2023-07-31T03:21:55;7.38;;;2.97;;
78718;SDS011;68046;53.334;9.538;2023-07-31T03:24:28;5.90;;;3.17;;
78718;SDS011;68046;53.334;9.538;2023-07-31T03:27:01;7.72;;;3.25;;
78718;SDS011;68046;53.334;9.538;2023-07-31T03:29:32;8.23;;;3.40;;
78718;SDS011;68046;53.334;9.538;2023-07-31T03:32:02;9.73;;;3.20;;
78718;SDS011;68046;53.334;9.538;2023-07-31T03:34:32;5.13;;;2.88;;
78718;SDS011;68046;53.334;9.538;2023-07-31T03:37:05;7.75;;;3.65;;
78718;SDS011;68046;53.334;9.538;2023-07-31T03:39:36;6.15;;;3.00;;
78718;SDS011;68046;53.334;9.538;2023-07-31T03:42:09;6.90;;;3.10;;
78718;SDS011;68046;53.334;9.538;2023-07-31T03:44:39;6.35;;;3.53;;
78718;SDS011;68046;53.334;9.538;2023-07-31T03:47:10;6.43;;;2.92;;
78718;SDS011;68046;53.334;9.538;2023-07-31T03:49:41;8.90;;;3.30;;
78718;SDS011;68046;53.334;9.538;2023-07-31T03:52:11;5.15;;;3.00;;
78718;SDS011;68046;53.334;9.538;2023-07-31T03:54:41;5.68;;;3.70;;
78718;SDS011;68046;53.334;9.538;2023-07-31T03:57:14;5.85;;;3.90;;
78718;SDS011;68046;53.334;9.538;2023-07-31T03:59:41;7.68;;;3.25;;
78718;SDS011;68046;53.334;9.538;2023-07-31T04:02:11;7.45;;;3.58;;
78718;SDS011;68046;53.334;9.538;2023-07-31T04:07:11;5.47;;;3.40;;
78718;SDS011;68046;53.334;9.538;2023-07-31T04:09:42;7.15;;;3.78;;
78718;SDS011;68046;53.334;9.538;2023-07-31T04:12:15;6.68;;;3.72;;
78718;SDS011;68046;53.334;9.538;2023-07-31T04:14:45;5.63;;;3.70;;
78718;SDS011;68046;53.334;9.538;2023-07-31T04:17:15;10.70;;;3.60;;
78718;SDS011;68046;53.334;9.538;2023-07-31T04:19:47;10.75;;;4.20;;
78718;SDS011;68046;53.334;9.538;2023-07-31T04:22:17;6.00;;;3.83;;
78718;SDS011;68046;53.334;9.538;2023-07-31T04:24:47;9.98;;;3.97;;
78718;SDS011;68046;53.334;9.538;2023-07-31T04:27:20;6.68;;;3.83;;
78718;SDS011;68046;53.334;9.538;2023-07-31T04:29:50;6.40;;;3.63;;
78718;SDS011;68046;53.334;9.538;2023-07-31T04:32:20;7.60;;;3.97;;
78718;SDS011;68046;53.334;9.538;2023-07-31T04:34:51;7.50;;;4.32;;
78718;SDS011;68046;53.334;9.538;2023-07-31T04:37:21;6.93;;;3.83;;
78718;SDS011;68046;53.334;9.538;2023-07-31T04:39:51;7.32;;;4.18;;
78718;SDS011;68046;53.334;9.538;2023-07-31T04:42:24;8.07;;;4.43;;
78718;SDS011;68046;53.334;9.538;2023-07-31T04:44:54;7.82;;;3.75;;
78718;SDS011;68046;53.334;9.538;2023-07-31T04:47:24;6.55;;;3.70;;
78718;SDS011;68046;53.334;9.538;2023-07-31T04:49:54;7.07;;;4.03;;
78718;SDS011;68046;53.334;9.538;2023-07-31T04:52:25;8.07;;;4.13;;
78718;SDS011;68046;53.334;9.538;2023-07-31T04:54:55;9.20;;;4.00;;
78718;SDS011;68046;53.334;9.538;2023-07-31T04:57:28;5.90;;;3.15;;
78718;SDS011;68046;53.334;9.538;2023-07-31T04:59:58;6.00;;;4.50;;
78718;SDS011;68046;53.334;9.538;2023-07-31T05:02:28;6.78;;;4.15;;
78718;SDS011;68046;53.334;9.538;2023-07-31T05:04:58;7.13;;;4.55;;
78718;SDS011;68046;53.334;9.538;2023-07-31T05:07:29;10.73;;;4.70;;
78718;SDS011;68046;53.334;9.538;2023-07-31T05:09:59;10.07;;;5.13;;
78718;SDS011;68046;53.334;9.538;2023-07-31T05:12:32;6.65;;;4.22;;
78718;SDS011;68046;53.334;9.538;2023-07-31T05:15:02;6.55;;;4.05;;
78718;SDS011;68046;53.334;9.538;2023-07-31T05:17:33;7.90;;;4.03;;
78718;SDS011;68046;53.334;9.538;2023-07-31T05:20:04;10.48;;;4.55;;
78718;SDS011;68046;53.334;9.538;2023-07-31T05:22:36;8.23;;;4.40;;
78718;SDS011;68046;53.334;9.538;2023-07-31T05:25:06;7.70;;;4.88;;
78718;SDS011;68046;53.334;9.538;2023-07-31T05:27:40;6.93;;;4.40;;
78718;SDS011;68046;53.334;9.538;2023-07-31T05:30:09;5.63;;;4.07;;
78718;SDS011;68046;53.334;9.538;2023-07-31T05:32:40;5.43;;;4.00;;
78718;SDS011;68046;53.334;9.538;2023-07-31T05:35:10;7.82;;;4.70;;
78718;SDS011;68046;53.334;9.538;2023-07-31T05:37:40;6.03;;;4.03;;
78718;SDS011;68046;53.334;9.538;2023-07-31T05:40:11;6.07;;;3.90;;
78718;SDS011;68046;53.334;9.538;2023-07-31T05:45:13;10.20;;;4.50;;
78718;SDS011;68046;53.334;9.538;2023-07-31T05:47:44;6.65;;;4.40;;
78718;SDS011;68046;53.334;9.538;2023-07-31T05:50:14;7.78;;;4.40;;
78718;SDS011;68046;53.334;9.538;2023-07-31T05:52:44;7.45;;;4.40;;
78718;SDS011;68046;53.334;9.538;2023-07-31T05:57:48;8.15;;;4.80;;
78718;SDS011;68046;53.334;9.538;2023-07-31T06:00:18;7.13;;;4.85;;
78718;SDS011;68046;53.334;9.538;2023-07-31T06:02:49;6.28;;;4.43;;
78718;SDS011;68046;53.334;9.538;2023-07-31T06:05:19;6.75;;;4.55;;
78718;SDS011;68046;53.334;9.538;2023-07-31T06:07:49;7.30;;;4.90;;
78718;SDS011;68046;53.334;9.538;2023-07-31T06:10:19;8.20;;;5.07;;
78718;SDS011;68046;53.334;9.538;2023-07-31T06:12:52;8.43;;;4.90;;
78718;SDS011;68046;53.334;9.538;2023-07-31T06:15:24;7.20;;;5.20;;
78718;SDS011;68046;53.334;9.538;2023-07-31T06:17:54;7.80;;;4.63;;
78718;SDS011;68046;53.334;9.538;2023-07-31T06:20:24;7.57;;;4.38;;
78718;SDS011;68046;53.334;9.538;2023-07-31T06:22:54;7.30;;;4.38;;
78718;SDS011;68046;53.334;9.538;2023-07-31T06:25:24;7.20;;;4.72;;
78718;SDS011;68046;53.334;9.538;2023-07-31T06:27:58;9.15;;;5.13;;
78718;SDS011;68046;53.334;9.538;2023-07-31T06:30:28;6.45;;;4.53;;
78718;SDS011;68046;53.334;9.538;2023-07-31T06:32:58;6.63;;;4.10;;
78718;SDS011;68046;53.334;9.538;2023-07-31T06:35:28;6.40;;;4.65;;
78718;SDS011;68046;53.334;9.538;2023-07-31T06:37:58;6.63;;;4.18;;
78718;SDS011;68046;53.334;9.538;2023-07-31T06:40:29;8.50;;;4.32;;
78718;SDS011;68046;53.334;9.538;2023-07-31T06:43:09;6.32;;;4.18;;
78718;SDS011;68046;53.334;9.538;2023-07-31T06:46:04;5.68;;;3.90;;
78718;SDS011;68046;53.334;9.538;2023-07-31T06:48:34;6.63;;;4.07;;
78718;SDS011;68046;53.334;9.538;2023-07-31T06:51:04;7.18;;;3.67;;
78718;SDS011;68046;53.334;9.538;2023-07-31T06:53:36;4.38;;;3.42;;
78718;SDS011;68046;53.334;9.538;2023-07-31T06:56:06;4.00;;;3.00;;
78718;SDS011;68046;53.334;9.538;2023-07-31T06:58:38;4.63;;;3.35;;
78718;SDS011;68046;53.334;9.538;2023-07-31T07:01:08;4.57;;;2.97;;
78718;SDS011;68046;53.334;9.538;2023-07-31T07:03:38;5.70;;;3.20;;
78718;SDS011;68046;53.334;9.538;2023-07-31T07:06:08;8.27;;;3.45;;
78718;SDS011;68046;53.334;9.538;2023-07-31T07:08:37;4.35;;;2.80;;
78718;SDS011;68046;53.334;9.538;2023-07-31T07:11:16;4.00;;;3.05;;
78718;SDS011;68046;53.334;9.538;2023-07-31T07:13:52;4.65;;;2.65;;
78718;SDS011;68046;53.334;9.538;2023-07-31T07:16:24;3.95;;;2.65;;
78718;SDS011;68046;53.334;9.538;2023-07-31T07:18:54;3.75;;;2.60;;
78718;SDS011;68046;53.334;9.538;2023-07-31T07:21:30;4.35;;;2.38;;
78718;SDS011;68046;53.334;9.538;2023-07-31T07:24:00;3.55;;;2.45;;
78718;SDS011;68046;53.334;9.538;2023-07-31T07:26:30;7.50;;;2.30;;
78718;SDS011;68046;53.334;9.538;2023-07-31T07:29:03;3.38;;;2.20;;
78718;SDS011;68046;53.334;9.538;2023-07-31T07:31:34;6.45;;;2.40;;
78718;SDS011;68046;53.334;9.538;2023-07-31T07:34:04;2.97;;;2.00;;
78718;SDS011;68046;53.334;9.538;2023-07-31T07:36:34;4.25;;;2.38;;
78718;SDS011;68046;53.334;9.538;2023-07-31T07:39:04;2.72;;;1.80;;
78718;SDS011;68046;53.334;9.538;2023-07-31T07:41:37;3.03;;;1.75;;
78718;SDS011;68046;53.334;9.538;2023-07-31T07:44:10;3.55;;;1.98;;
78718;SDS011;68046;53.334;9.538;2023-07-31T07:46:40;3.47;;;2.03;;
78718;SDS011;68046;53.334;9.538;2023-07-31T07:49:13;3.95;;;1.70;;
78718;SDS011;68046;53.334;9.538;2023-07-31T07:51:48;2.85;;;1.60;;
78718;SDS011;68046;53.334;9.538;2023-07-31T07:54:18;2.33;;;1.50;;
78718;SDS011;68046;53.334;9.538;2023-07-31T07:56:48;2.10;;;1.60;;
78718;SDS011;68046;53.334;9.538;2023-07-31T07:59:23;3.17;;;1.50;;
78718;SDS011;68046;53.334;9.538;2023-07-31T08:01:53;2.95;;;1.50;;
78718;SDS011;68046;53.334;9.538;2023-07-31T08:06:53;1.83;;;1.23;;
78718;SDS011;68046;53.334;9.538;2023-07-31T08:09:23;2.00;;;1.42;;
78718;SDS011;68046;53.334;9.538;2023-07-31T08:14:52;4.10;;;1.20;;
78718;SDS011;68046;53.334;9.538;2023-07-31T08:17:21;1.70;;;1.15;;
78718;SDS011;68046;53.334;9.538;2023-07-31T08:19:51;1.48;;;1.10;;
78718;SDS011;68046;53.334;9.538;2023-07-31T08:22:21;2.53;;;1.10;;
78718;SDS011;68046;53.334;9.538;2023-07-31T08:24:53;1.55;;;1.13;;
78718;SDS011;68046;53.334;9.538;2023-07-31T08:27:26;0.70;;;0.47;;
78718;SDS011;68046;53.334;9.538;2023-07-31T08:29:58;0.70;;;0.60;;
78718;SDS011;68046;53.334;9.538;2023-07-31T08:32:28;1.13;;;0.70;;
78718;SDS011;68046;53.334;9.538;2023-07-31T08:34:58;1.63;;;1.00;;
78718;SDS011;68046;53.334;9.538;2023-07-31T08:37:29;0.93;;;0.70;;
78718;SDS011;68046;53.334;9.538;2023-07-31T08:39:58;1.15;;;0.75;;
78718;SDS011;68046;53.334;9.538;2023-07-31T08:42:29;0.70;;;0.55;;
78718;SDS011;68046;53.334;9.538;2023-07-31T08:45:02;1.58;;;1.05;;
78718;SDS011;68046;53.334;9.538;2023-07-31T08:47:35;1.27;;;0.70;;
78718;SDS011;68046;53.334;9.538;2023-07-31T08:50:06;1.60;;;1.08;;
78718;SDS011;68046;53.334;9.538;2023-07-31T08:52:36;1.58;;;0.68;;
78718;SDS011;68046;53.334;9.538;2023-07-31T08:55:07;1.67;;;0.60;;
78718;SDS011;68046;53.334;9.538;2023-07-31T09:00:10;2.22;;;0.80;;
78718;SDS011;68046;53.334;9.538;2023-07-31T09:02:41;1.25;;;0.80;;
78718;SDS011;68046;53.334;9.538;2023-07-31T09:05:15;2.45;;;1.00;;
78718;SDS011;68046;53.334;9.538;2023-07-31T09:07:47;1.83;;;1.02;;
78718;SDS011;68046;53.334;9.538;2023-07-31T09:10:17;7.82;;;2.78;;
78718;SDS011;68046;53.334;9.538;2023-07-31T09:12:47;4.97;;;2.78;;
78718;SDS011;68046;53.334;9.538;2023-07-31T09:15:21;11.57;;;3.97;;
78718;SDS011;68046;53.334;9.538;2023-07-31T09:18:04;7.15;;;3.85;;
78718;SDS011;68046;53.334;9.538;2023-07-31T09:20:35;8.50;;;4.72;;
78718;SDS011;68046;53.334;9.538;2023-07-31T09:23:05;12.45;;;5.78;;
78718;SDS011;68046;53.334;9.538;2023-07-31T09:25:37;13.88;;;6.72;;
78718;SDS011;68046;53.334;9.538;2023-07-31T09:28:07;14.13;;;6.32;;
78718;SDS011;68046;53.334;9.538;2023-07-31T09:30:48;17.55;;;7.57;;
78718;SDS011;68046;53.334;9.538;2023-07-31T09:33:23;15.20;;;7.75;;
78718;SDS011;68046;53.334;9.538;2023-07-31T09:35:55;21.23;;;8.98;;
78718;SDS011;68046;53.334;9.538;2023-07-31T09:38:28;23.25;;;8.88;;
78718;SDS011;68046;53.334;9.538;2023-07-31T09:41:01;28.10;;;8.80;;
78718;SDS011;68046;53.334;9.538;2023-07-31T09:43:31;21.10;;;9.93;;
78718;SDS011;68046;53.334;9.538;2023-07-31T09:46:03;25.58;;;10.38;;
78718;SDS011;68046;53.334;9.538;2023-07-31T09:48:38;21.00;;;9.32;;
78718;SDS011;68046;53.334;9.538;2023-07-31T09:51:11;26.63;;;9.40;;
78718;SDS011;68046;53.334;9.538;2023-07-31T09:53:49;29.10;;;9.48;;
78718;SDS011;68046;53.334;9.538;2023-07-31T09:56:24;30.27;;;10.15;;
78718;SDS011;68046;53.334;9.538;2023-07-31T09:58:55;30.10;;;10.38;;
78718;SDS011;68046;53.334;9.538;2023-07-31T10:01:38;21.50;;;10.27;;
78718;SDS011;68046;53.334;9.538;2023-07-31T10:04:08;23.83;;;10.52;;
78718;SDS011;68046;53.334;9.538;2023-07-31T10:06:42;20.40;;;9.10;;
78718;SDS011;68046;53.334;9.538;2023-07-31T10:09:17;25.67;;;10.30;;
78718;SDS011;68046;53.334;9.538;2023-07-31T10:11:51;22.63;;;9.20;;
78718;SDS011;68046;53.334;9.538;2023-07-31T10:14:25;24.08;;;9.30;;
78718;SDS011;68046;53.334;9.538;2023-07-31T10:16:58;26.80;;;9.45;;
78718;SDS011;68046;53.334;9.538;2023-07-31T10:19:30;23.70;;;9.07;;
78718;SDS011;68046;53.334;9.538;2023-07-31T10:22:01;28.17;;;9.95;;
78718;SDS011;68046;53.334;9.538;2023-07-31T10:24:40;16.92;;;8.63;;
78718;SDS011;68046;53.334;9.538;2023-07-31T10:27:12;21.00;;;8.98;;
78718;SDS011;68046;53.334;9.538;2023-07-31T10:29:45;25.63;;;9.15;;
78718;SDS011;68046;53.334;9.538;2023-07-31T10:32:22;20.40;;;8.18;;
78718;SDS011;68046;53.334;9.538;2023-07-31T10:34:53;17.77;;;9.88;;
78718;SDS011;68046;53.334;9.538;2023-07-31T10:37:24;18.25;;;8.27;;
78718;SDS011;68046;53.334;9.538;2023-07-31T10:39:59;19.20;;;7.97;;
78718;SDS011;68046;53.334;9.538;2023-07-31T10:42:31;23.50;;;8.48;;
78718;SDS011;68046;53.334;9.538;2023-07-31T10:45:02;20.40;;;8.63;;
78718;SDS011;68046;53.334;9.538;2023-07-31T10:47:39;15.75;;;7.78;;
78718;SDS011;68046;53.334;9.538;2023-07-31T10:50:12;16.83;;;7.70;;
78718;SDS011;68046;53.334;9.538;2023-07-31T10:52:46;20.88;;;7.88;;
78718;SDS011;68046;53.334;9.538;2023-07-31T10:55:30;14.45;;;7.05;;
78718;SDS011;68046;53.334;9.538;2023-07-31T10:58:07;16.58;;;8.43;;
78718;SDS011;68046;53.334;9.538;2023-07-31T11:00:38;13.75;;;6.43;;
78718;SDS011;68046;53.334;9.538;2023-07-31T11:03:12;13.90;;;7.32;;
78718;SDS011;68046;53.334;9.538;2023-07-31T11:05:44;15.40;;;6.82;;
78718;SDS011;68046;53.334;9.538;2023-07-31T11:08:20;15.73;;;6.53;;
78718;SDS011;68046;53.334;9.538;2023-07-31T11:11:04;20.48;;;6.65;;
78718;SDS011;68046;53.334;9.538;2023-07-31T11:13:39;15.88;;;6.22;;
78718;SDS011;68046;53.334;9.538;2023-07-31T11:16:10;15.88;;;6.00;;
78718;SDS011;68046;53.334;9.538;2023-07-31T11:18:45;15.70;;;6.55;;
78718;SDS011;68046;53.334;9.538;2023-07-31T11:21:17;14.88;;;6.00;;
78718;SDS011;68046;53.334;9.538;2023-07-31T11:23:48;10.00;;;5.15;;
78718;SDS011;68046;53.334;9.538;2023-07-31T11:26:19;10.20;;;4.57;;
78718;SDS011;68046;53.334;9.538;2023-07-31T11:28:49;13.20;;;4.65;;
78718;SDS011;68046;53.334;9.538;2023-07-31T11:31:19;8.25;;;4.22;;
78718;SDS011;68046;53.334;9.538;2023-07-31T11:33:58;9.52;;;4.68;;
78718;SDS011;68046;53.334;9.538;2023-07-31T11:36:34;10.90;;;4.45;;
78718;SDS011;68046;53.334;9.538;2023-07-31T11:39:04;6.40;;;3.78;;
78718;SDS011;68046;53.334;9.538;2023-07-31T11:41:34;6.25;;;3.55;;
78718;SDS011;68046;53.334;9.538;2023-07-31T11:44:04;7.40;;;3.72;;
78718;SDS011;68046;53.334;9.538;2023-07-31T11:46:52;9.88;;;3.75;;
78718;SDS011;68046;53.334;9.538;2023-07-31T11:49:24;9.77;;;3.60;;
78718;SDS011;68046;53.334;9.538;2023-07-31T11:51:55;5.68;;;3.63;;
78718;SDS011;68046;53.334;9.538;2023-07-31T11:54:24;6.45;;;3.22;;
78718;SDS011;68046;53.334;9.538;2023-07-31T11:56:54;7.40;;;3.95;;
78718;SDS011;68046;53.334;9.538;2023-07-31T11:59:27;5.07;;;2.97;;
78718;SDS011;68046;53.334;9.538;2023-07-31T12:01:57;4.57;;;2.75;;
78718;SDS011;68046;53.334;9.538;2023-07-31T12:04:29;6.25;;;2.72;;
78718;SDS011;68046;53.334;9.538;2023-07-31T12:06:59;6.28;;;2.83;;
78718;SDS011;68046;53.334;9.538;2023-07-31T12:09:29;5.38;;;2.50;;
78718;SDS011;68046;53.334;9.538;2023-07-31T12:11:59;4.40;;;2.63;;
78718;SDS011;68046;53.334;9.538;2023-07-31T12:14:30;5.15;;;2.58;;
78718;SDS011;68046;53.334;9.538;2023-07-31T12:17:01;6.15;;;2.65;;
78718;SDS011;68046;53.334;9.538;2023-07-31T12:19:36;4.05;;;2.30;;
78718;SDS011;68046;53.334;9.538;2023-07-31T12:22:10;4.55;;;2.30;;
78718;SDS011;68046;53.334;9.538;2023-07-31T12:24:41;3.88;;;2.50;;
78718;SDS011;68046;53.334;9.538;2023-07-31T12:27:12;3.00;;;1.90;;
78718;SDS011;68046;53.334;9.538;2023-07-31T12:29:44;5.18;;;2.40;;
78718;SDS011;68046;53.334;9.538;2023-07-31T12:32:20;4.90;;;2.40;;
78718;SDS011;68046;53.334;9.538;2023-07-31T12:34:54;3.55;;;2.22;;
78718;SDS011;68046;53.334;9.538;2023-07-31T12:37:24;4.90;;;2.00;;
78718;SDS011;68046;53.334;9.538;2023-07-31T12:39:54;3.15;;;1.98;;
78718;SDS011;68046;53.334;9.538;2023-07-31T12:42:30;2.47;;;1.75;;
78718;SDS011;68046;53.334;9.538;2023-07-31T12:45:41;3.03;;;2.08;;
78718;SDS011;68046;53.334;9.538;2023-07-31T12:48:29;3.90;;;2.10;;
78718;SDS011;68046;53.334;9.538;2023-07-31T12:54:42;3.85;;;1.60;;
78718;SDS011;68046;53.334;9.538;2023-07-31T12:57:53;3.00;;;2.03;;
78718;SDS011;68046;53.334;9.538;2023-07-31T13:00:37;3.25;;;1.50;;
78718;SDS011;68046;53.334;9.538;2023-07-31T13:03:42;2.58;;;1.48;;
78718;SDS011;68046;53.334;9.538;2023-07-31T13:09:16;2.40;;;1.60;;
78718;SDS011;68046;53.334;9.538;2023-07-31T13:15:32;2.20;;;1.50;;
78718;SDS011;68046;53.334;9.538;2023-07-31T13:24:26;2.20;;;1.40;;
78718;SDS011;68046;53.334;9.538;2023-07-31T13:39:55;2.97;;;1.58;;
78718;SDS011;68046;53.334;9.538;2023-07-31T13:43:13;3.20;;;1.70;;
78718;SDS011;68046;53.334;9.538;2023-07-31T13:48:46;4.35;;;1.50;;
78718;SDS011;68046;53.334;9.538;2023-07-31T13:50:27;2.50;;;1.55;;
78718;SDS011;68046;53.334;9.538;2023-07-31T13:53:30;2.80;;;1.95;;
78718;SDS011;68046;53.334;9.538;2023-07-31T13:56:03;3.00;;;2.13;;
78718;SDS011;68046;53.334;9.538;2023-07-31T13:58:33;4.43;;;2.45;;
78718;SDS011;68046;53.334;9.538;2023-07-31T14:01:03;6.50;;;2.40;;
78718;SDS011;68046;53.334;9.538;2023-07-31T14:03:33;3.38;;;2.40;;
78718;SDS011;68046;53.334;9.538;2023-07-31T14:06:03;4.60;;;2.83;;
78718;SDS011;68046;53.334;9.538;2023-07-31T14:08:33;4.03;;;2.50;;
78718;SDS011;68046;53.334;9.538;2023-07-31T14:11:05;4.28;;;2.65;;
78718;SDS011;68046;53.334;9.538;2023-07-31T14:13:35;4.13;;;2.80;;
78718;SDS011;68046;53.334;9.538;2023-07-31T14:16:05;5.50;;;3.22;;
78718;SDS011;68046;53.334;9.538;2023-07-31T14:18:35;5.68;;;3.30;;
78718;SDS011;68046;53.334;9.538;2023-07-31T14:21:05;5.88;;;3.40;;
78718;SDS011;68046;53.334;9.538;2023-07-31T14:23:35;6.18;;;2.88;;
78718;SDS011;68046;53.334;9.538;2023-07-31T14:26:07;4.85;;;3.35;;
78718;SDS011;68046;53.334;9.538;2023-07-31T14:28:37;5.43;;;3.65;;
78718;SDS011;68046;53.334;9.538;2023-07-31T14:31:07;5.68;;;3.55;;
78718;SDS011;68046;53.334;9.538;2023-07-31T14:33:37;6.20;;;3.45;;
78718;SDS011;68046;53.334;9.538;2023-07-31T14:36:07;4.80;;;3.45;;
78718;SDS011;68046;53.334;9.538;2023-07-31T14:38:36;5.85;;;3.47;;
78718;SDS011;68046;53.334;9.538;2023-07-31T14:41:09;6.00;;;3.90;;
78718;SDS011;68046;53.334;9.538;2023-07-31T14:43:38;7.97;;;4.18;;
78718;SDS011;68046;53.334;9.538;2023-07-31T14:46:08;6.20;;;4.32;;
78718;SDS011;68046;53.334;9.538;2023-07-31T14:48:38;7.20;;;3.80;;
78718;SDS011;68046;53.334;9.538;2023-07-31T14:51:08;6.40;;;4.15;;
78718;SDS011;68046;53.334;9.538;2023-07-31T14:53:38;7.03;;;4.22;;
78718;SDS011;68046;53.334;9.538;2023-07-31T14:56:10;11.10;;;4.15;;
78718;SDS011;68046;53.334;9.538;2023-07-31T14:58:40;8.23;;;3.92;;
78718;SDS011;68046;53.334;9.538;2023-07-31T15:01:10;7.53;;;3.90;;
78718;SDS011;68046;53.334;9.538;2023-07-31T15:03:40;8.98;;;4.20;;
78718;SDS011;68046;53.334;9.538;2023-07-31T15:06:10;9.52;;;4.15;;
78718;SDS011;68046;53.334;9.538;2023-07-31T15:08:40;10.35;;;4.10;;
78718;SDS011;68046;53.334;9.538;2023-07-31T15:11:13;8.38;;;4.53;;
78718;SDS011;68046;53.334;9.538;2023-07-31T15:13:44;9.90;;;4.90;;
78718;SDS011;68046;53.334;9.538;2023-07-31T15:16:14;11.00;;;4.85;;
78718;SDS011;68046;53.334;9.538;2023-07-31T15:18:44;7.90;;;5.03;;
78718;SDS011;68046;53.334;9.538;2023-07-31T15:21:14;7.95;;;5.40;;
78718;SDS011;68046;53.334;9.538;2023-07-31T15:23:44;7.43;;;5.03;;
78718;SDS011;68046;53.334;9.538;2023-07-31T15:26:17;9.70;;;5.63;;
78718;SDS011;68046;53.334;9.538;2023-07-31T15:28:49;16.35;;;5.93;;
78718;SDS011;68046;53.334;9.538;2023-07-31T15:31:19;9.90;;;6.00;;
78718;SDS011;68046;53.334;9.538;2023-07-31T15:33:49;9.10;;;5.60;;
78718;SDS011;68046;53.334;9.538;2023-07-31T15:36:19;11.35;;;6.10;;
78718;SDS011;68046;53.334;9.538;2023-07-31T15:38:49;10.13;;;5.20;;
78718;SDS011;68046;53.334;9.538;2023-07-31T15:41:21;10.55;;;5.60;;
78718;SDS011;68046;53.334;9.538;2023-07-31T15:43:52;9.98;;;6.05;;
78718;SDS011;68046;53.334;9.538;2023-07-31T15:46:22;10.40;;;6.20;;
78718;SDS011;68046;53.334;9.538;2023-07-31T15:48:52;10.23;;;6.25;;
78718;SDS011;68046;53.334;9.538;2023-07-31T15:51:22;11.20;;;6.93;;
78718;SDS011;68046;53.334;9.538;2023-07-31T15:53:52;12.98;;;6.18;;
78718;SDS011;68046;53.334;9.538;2023-07-31T15:56:25;10.63;;;6.85;;
78718;SDS011;68046;53.334;9.538;2023-07-31T15:58:54;12.98;;;7.38;;
78718;SDS011;68046;53.334;9.538;2023-07-31T16:01:25;12.65;;;6.28;;
78718;SDS011;68046;53.334;9.538;2023-07-31T16:03:55;9.95;;;6.53;;
78718;SDS011;68046;53.334;9.538;2023-07-31T16:06:24;10.63;;;6.47;;
78718;SDS011;68046;53.334;9.538;2023-07-31T16:08:54;11.10;;;6.53;;
78718;SDS011;68046;53.334;9.538;2023-07-31T16:11:27;9.88;;;6.45;;
78718;SDS011;68046;53.334;9.538;2023-07-31T16:13:57;9.48;;;6.13;;
78718;SDS011;68046;53.334;9.538;2023-07-31T16:16:28;12.10;;;6.72;;
78718;SDS011;68046;53.334;9.538;2023-07-31T16:18:58;12.23;;;7.30;;
78718;SDS011;68046;53.334;9.538;2023-07-31T16:21:28;14.73;;;7.85;;
78718;SDS011;68046;53.334;9.538;2023-07-31T16:23:58;11.98;;;7.15;;